Time;durP1;ratioP1;P1;durP2;ratioP2;P2;SDS_P1;SDS_P2;PMS_P1;PMS_P2;Temp;Humidity;BMP_temperature;BMP_pressure;BME280_temperature;BME280_humidity;BME280_pressure;Samples;Min_cycle;Max_cycle;Signal;HPM_P1;HPM_P2
2022/09/07 00:00:49;;;;;;;3.10;2.30;;;;;;;15.08;70.40;99827.72;5005936;28;20033;-91
2022/09/07 00:03:15;;;;;;;3.55;2.50;;;;;;;15.04;71.37;99835.59;5021455;28;20028;-91
2022/09/07 00:05:45;;;;;;;3.00;2.30;;;;;;;15.15;70.39;99849.88;5014220;28;20036;-92
2022/09/07 00:08:10;;;;;;;6.13;2.63;;;;;;;15.12;70.20;99829.56;4966796;28;20021;-92
2022/09/07 00:10:36;;;;;;;3.58;2.25;;;;;;;15.14;71.34;99854.47;4972203;28;20055;-91
2022/09/07 00:13:02;;;;;;;4.07;2.50;;;;;;;14.90;71.78;99840.06;5005441;28;20025;-91
2022/09/07 00:15:27;;;;;;;5.25;2.40;;;;;;;14.83;71.73;99839.63;5004971;28;20037;-91
2022/09/07 00:17:52;;;;;;;4.82;2.50;;;;;;;14.72;71.58;99823.44;5005025;28;20033;-91
2022/09/07 00:20:18;;;;;;;4.40;2.60;;;;;;;14.89;71.72;99850.13;5020843;28;20090;-91
2022/09/07 00:22:45;;;;;;;3.33;2.30;;;;;;;14.79;71.86;99833.13;5005618;28;20091;-91
2022/09/07 00:25:10;;;;;;;3.92;2.58;;;;;;;14.82;72.06;99849.66;5005067;28;20087;-91
2022/09/07 00:27:35;;;;;;;4.45;2.40;;;;;;;14.75;72.08;99844.56;5021777;28;20388;-91
2022/09/07 00:30:01;;;;;;;5.32;2.30;;;;;;;14.71;71.98;99838.09;5021277;28;20020;-91
2022/09/07 00:32:26;;;;;;;6.03;2.47;;;;;;;14.74;72.19;99845.66;5004929;28;20033;-91
2022/09/07 00:34:52;;;;;;;4.95;2.17;;;;;;;14.71;72.26;99854.38;5020939;28;20029;-91
2022/09/07 00:37:18;;;;;;;4.70;2.35;;;;;;;14.72;72.19;99853.25;5020889;28;20060;-92
2022/09/07 00:39:44;;;;;;;2.90;2.20;;;;;;;14.66;71.17;99845.47;5037577;28;20478;-91
2022/09/07 00:42:09;;;;;;;4.28;2.08;;;;;;;14.71;71.47;99846.22;5020747;28;20029;-92
2022/09/07 00:44:38;;;;;;;4.20;2.40;;;;;;;14.96;70.63;99863.34;5037446;28;20025;-91
2022/09/07 00:47:05;;;;;;;3.13;2.45;;;;;;;14.87;70.89;99868.56;5053897;28;20032;-91
2022/09/07 00:49:31;;;;;;;4.90;2.72;;;;;;;14.72;70.64;99845.13;5020847;28;20025;-91
2022/09/07 00:51:58;;;;;;;3.38;2.13;;;;;;;14.65;70.51;99847.38;5020798;28;20037;-92
2022/09/07 00:54:27;;;;;;;5.93;2.50;;;;;;;14.66;70.34;99856.28;5020803;28;20029;-91
2022/09/07 00:56:53;;;;;;;3.47;2.17;;;;;;;14.61;70.31;99857.16;5020535;28;20021;-91
2022/09/07 00:59:21;;;;;;;3.85;2.20;;;;;;;14.45;70.83;99842.88;5020609;28;20060;-91
2022/09/07 01:01:46;;;;;;;3.35;2.20;;;;;;;14.44;71.25;99851.28;5019986;28;20020;-91
2022/09/07 01:04:12;;;;;;;4.13;2.20;;;;;;;14.47;70.06;99856.94;5036459;28;20028;-91
2022/09/07 01:06:38;;;;;;;3.25;2.38;;;;;;;14.42;69.79;99842.63;5003931;28;20044;-91
2022/09/07 01:09:18;;;;;;;4.25;2.00;;;;;;;14.30;69.14;99824.03;5020846;28;20025;-92
2022/09/07 01:11:52;;;;;;;3.70;2.03;;;;;;;14.37;69.32;99842.66;5020149;28;20048;-91
2022/09/07 01:14:22;;;;;;;3.38;2.33;;;;;;;14.23;69.93;99829.75;5022242;28;20021;-91
2022/09/07 01:17:12;;;;;;;3.35;2.15;;;;;;;14.26;70.06;99842.75;5020252;28;20040;-91
2022/09/07 01:19:37;;;;;;;4.55;2.65;;;;;;;14.42;69.83;99850.75;5039240;28;20414;-91
2022/09/07 01:22:42;;;;;;;3.35;2.30;;;;;;;14.42;69.68;99834.50;5052583;28;20117;-92
2022/09/07 01:25:21;;;;;;;3.38;2.20;;;;;;;14.42;69.96;99829.91;5034590;28;20403;-91
2022/09/07 01:28:09;;;;;;;3.78;2.33;;;;;;;14.39;70.05;99829.66;4997667;28;20488;-92
2022/09/07 01:30:37;;;;;;;2.60;2.00;;;;;;;14.50;70.16;99839.31;4989617;28;20487;-91
2022/09/07 01:33:08;;;;;;;4.15;2.38;;;;;;;14.55;70.44;99844.69;5036910;28;20021;-91
2022/09/07 01:35:55;;;;;;;7.68;2.20;;;;;;;14.59;70.47;99840.38;5053500;28;20021;-91
2022/09/07 01:38:42;;;;;;;6.82;2.40;;;;;;;14.50;70.49;99839.31;5054597;28;20029;-91
2022/09/07 01:41:11;;;;;;;3.97;2.00;;;;;;;14.46;70.09;99841.75;5054852;28;20475;-91
2022/09/07 01:43:57;;;;;;;3.15;2.50;;;;;;;14.41;70.57;99836.41;5055223;28;20025;-91
2022/09/07 01:46:28;;;;;;;4.63;2.85;;;;;;;14.26;71.07;99826.50;5020897;28;20025;-91
2022/09/07 01:48:55;;;;;;;4.00;2.53;;;;;;;14.26;70.94;99828.41;5021074;28;20115;-90
2022/09/07 01:51:21;;;;;;;5.40;2.63;;;;;;;14.22;71.19;99821.91;5020434;28;20033;-92
2022/09/07 01:53:54;;;;;;;3.15;2.30;;;;;;;14.17;71.53;99819.22;5020275;28;20033;-92
2022/09/07 01:56:29;;;;;;;5.97;2.72;;;;;;;14.10;71.90;99819.56;5020076;28;20044;-93
2022/09/07 01:59:02;;;;;;;6.93;2.83;;;;;;;14.09;72.08;99824.16;5021045;28;20086;-92
2022/09/07 02:01:31;;;;;;;4.38;2.60;;;;;;;14.07;72.04;99825.50;5020062;28;20035;-92
2022/09/07 02:04:18;;;;;;;4.20;2.50;;;;;;;14.04;72.23;99821.47;5003320;28;20032;-92
2022/09/07 02:06:49;;;;;;;5.18;2.05;;;;;;;13.87;72.35;99802.91;5020274;28;20028;-93
2022/09/07 02:09:29;;;;;;;6.38;2.10;;;;;;;13.91;72.34;99816.69;5019755;28;20035;-92
2022/09/07 02:11:55;;;;;;;4.10;2.30;;;;;;;13.94;72.11;99818.81;5051509;28;20116;-92
2022/09/07 02:14:28;;;;;;;3.33;2.15;;;;;;;13.82;72.16;99821.06;5002562;28;20566;-92
2022/09/07 02:17:46;;;;;;;3.35;2.22;;;;;;;13.81;72.14;99800.50;5019852;28;20075;-91
2022/09/07 02:20:18;;;;;;;5.75;2.35;;;;;;;13.77;72.37;99800.25;5044789;28;20067;-92
2022/09/07 02:22:45;;;;;;;3.47;2.22;;;;;;;13.77;72.46;99797.53;5019936;28;20021;-91
2022/09/07 02:25:13;;;;;;;6.03;2.00;;;;;;;13.72;72.80;99797.59;5019558;28;20021;-92
2022/09/07 02:27:42;;;;;;;3.90;2.22;;;;;;;13.69;72.34;99796.22;5019967;28;20021;-92
2022/09/07 02:30:08;;;;;;;3.97;2.25;;;;;;;13.80;72.25;99815.94;5019566;28;20036;-91
2022/09/07 02:32:34;;;;;;;3.72;2.45;;;;;;;13.65;72.63;99795.16;5018920;28;20021;-92
2022/09/07 02:34:59;;;;;;;7.43;2.22;;;;;;;13.65;72.36;99800.56;5019033;28;20025;-93
2022/09/07 02:37:26;;;;;;;3.45;1.98;;;;;;;13.74;72.42;99822.47;5018707;28;20028;-91
2022/09/07 02:39:52;;;;;;;3.95;2.20;;;;;;;13.64;72.69;99809.78;5018183;28;20031;-92
2022/09/07 02:42:17;;;;;;;4.82;2.58;;;;;;;13.52;72.75;99796.56;5018592;28;20037;-92
2022/09/07 02:44:44;;;;;;;4.07;2.00;;;;;;;13.49;72.85;99797.16;5019062;28;20025;-92
2022/09/07 02:47:30;;;;;;;4.78;2.47;;;;;;;13.61;72.88;99820.34;5019438;28;20029;-92
2022/09/07 02:50:20;;;;;;;3.75;2.17;;;;;;;13.57;72.91;99816.56;5018620;28;20025;-93
2022/09/07 02:52:52;;;;;;;5.75;2.10;;;;;;;13.54;72.83;99818.75;5051795;28;20592;-92
2022/09/07 02:55:45;;;;;;;5.40;2.30;;;;;;;13.59;73.09;99820.63;5053313;28;20060;-92
2022/09/07 02:58:42;;;;;;;2.83;2.00;;;;;;;13.71;72.73;99810.28;5018964;28;20502;-93
2022/09/07 03:01:30;;;;;;;3.25;2.00;;;;;;;13.54;73.48;99804.41;5051833;28;20027;-93
2022/09/07 03:04:12;;;;;;;5.22;2.05;;;;;;;13.68;73.17;99823.59;5020811;28;20052;-93
2022/09/07 03:06:47;;;;;;;2.85;2.08;;;;;;;13.59;73.05;99803.59;5006923;28;20036;-92
2022/09/07 03:09:16;;;;;;;4.88;1.92;;;;;;;13.58;73.48;99800.06;5015466;28;20029;-92
2022/09/07 03:11:41;;;;;;;5.82;2.22;;;;;;;13.58;73.86;99813.59;4987362;28;20032;-93
2022/09/07 03:14:13;;;;;;;2.83;2.03;;;;;;;13.49;73.61;99805.25;4963563;28;20033;-92
2022/09/07 03:16:38;;;;;;;;;;;;;;;13.59;73.69;99814.41;5002632;28;20025;-92
2022/09/07 03:19:04;;;;;;;4.22;2.45;;;;;;;13.50;73.64;99816.88;5018290;28;20023;-91
2022/09/07 03:21:30;;;;;;;2.70;2.10;;;;;;;13.42;74.17;99815.56;5018108;28;20024;-92
2022/09/07 03:23:55;;;;;;;8.80;3.28;;;;;;;13.40;73.62;99801.50;5003600;28;20479;-93
2022/09/07 03:26:24;;;;;;;5.28;2.13;;;;;;;13.33;74.15;99807.19;4993114;28;20022;-92
2022/09/07 03:28:50;;;;;;;4.47;2.00;;;;;;;13.48;73.46;99821.75;4967418;28;20018;-93
2022/09/07 03:31:16;;;;;;;4.57;2.15;;;;;;;13.35;73.71;99812.34;4982292;28;20041;-92
2022/09/07 03:33:41;;;;;;;7.07;2.53;;;;;;;13.36;74.06;99816.66;4983199;28;20022;-92
2022/09/07 03:36:07;;;;;;;7.68;2.72;;;;;;;13.27;73.67;99819.09;4981144;28;20032;-91
2022/09/07 03:38:32;;;;;;;4.03;2.25;;;;;;;13.30;73.89;99832.09;5005924;28;20031;-92
2022/09/07 03:40:59;;;;;;;5.40;2.13;;;;;;;13.20;74.34;99812.34;5021094;28;20475;-91
2022/09/07 03:43:25;;;;;;;5.20;2.33;;;;;;;13.14;74.40;99815.06;5021986;28;20028;-91
2022/09/07 03:45:55;;;;;;;4.53;2.10;;;;;;;13.17;74.07;99819.13;5023030;28;20025;-91
2022/09/07 03:48:21;;;;;;;3.42;2.05;;;;;;;13.21;73.70;99832.91;5022693;28;20025;-89
2022/09/07 03:50:56;;;;;;;4.13;2.45;;;;;;;13.15;74.43;99837.50;5022641;28;20087;-91
2022/09/07 03:53:22;;;;;;;6.97;3.17;;;;;;;13.03;74.33;99828.88;5022719;28;20021;-91
2022/09/07 03:56:01;;;;;;;9.20;3.97;;;;;;;13.14;74.06;99827.78;5014174;28;20038;-91
2022/09/07 03:58:32;;;;;;;13.57;4.63;;;;;;;13.10;74.95;99834.84;4966794;28;20032;-91
2022/09/07 04:00:58;;;;;;;5.07;2.70;;;;;;;13.13;74.38;99842.38;4966392;28;20029;-91
2022/09/07 04:03:24;;;;;;;3.72;2.67;;;;;;;13.06;74.50;99821.03;4981909;28;20099;-91
2022/09/07 04:05:56;;;;;;;5.43;2.65;;;;;;;13.14;74.22;99827.78;4982185;28;20029;-90
2022/09/07 04:08:25;;;;;;;8.88;3.28;;;;;;;13.17;74.16;99827.22;4967094;28;20021;-89
2022/09/07 04:10:50;;;;;;;8.23;3.10;;;;;;;13.03;74.57;99808.09;4965711;28;20393;-91
2022/09/07 04:13:16;;;;;;;6.28;2.47;;;;;;;13.05;74.91;99843.78;4981527;28;20025;-90
2022/09/07 04:15:41;;;;;;;3.40;2.30;;;;;;;13.11;74.99;99850.78;4981928;28;20026;-91
2022/09/07 04:18:07;;;;;;;6.93;2.70;;;;;;;12.99;75.15;99834.03;4966209;28;20042;-91
2022/09/07 04:20:32;;;;;;;4.50;3.25;;;;;;;12.96;75.19;99836.47;4982835;28;20500;-91
2022/09/07 04:22:58;;;;;;;6.30;2.55;;;;;;;12.89;75.22;99831.34;4966887;28;20033;-90
2022/09/07 04:25:23;;;;;;;4.32;2.65;;;;;;;12.94;75.44;99847.56;4998480;28;20084;-92
2022/09/07 04:27:49;;;;;;;6.72;2.80;;;;;;;12.88;75.46;99837.81;4966231;28;20030;-91
2022/09/07 04:30:14;;;;;;;4.57;2.85;;;;;;;12.88;75.54;99837.81;4983061;28;20369;-91
2022/09/07 04:32:40;;;;;;;8.70;2.90;;;;;;;13.02;75.38;99857.81;4982231;28;20068;-93
2022/09/07 04:35:06;;;;;;;4.93;3.00;;;;;;;13.01;75.47;99848.09;4980856;28;20029;-92
2022/09/07 04:37:31;;;;;;;6.18;2.78;;;;;;;13.03;75.10;99845.09;4981682;28;20034;-91
2022/09/07 04:39:57;;;;;;;5.72;3.58;;;;;;;13.16;75.20;99858.06;4981747;28;20030;-93
2022/09/07 04:42:22;;;;;;;3.95;2.85;;;;;;;13.10;74.49;99843.75;4982192;28;20032;-92
2022/09/07 04:44:48;;;;;;;12.27;3.38;;;;;;;13.14;74.66;99846.72;4982139;28;20026;-91
2022/09/07 04:47:14;;;;;;;6.30;3.45;;;;;;;13.32;74.22;99865.09;4981636;28;20053;-90
2022/09/07 04:49:39;;;;;;;7.63;3.42;;;;;;;13.25;74.61;99842.91;4965026;28;20088;-91
2022/09/07 04:52:05;;;;;;;4.78;2.50;;;;;;;13.32;74.43;99848.03;4981563;28;20022;-91
2022/09/07 04:54:30;;;;;;;6.60;4.07;;;;;;;13.41;73.96;99861.84;4981354;28;20022;-91
2022/09/07 04:56:56;;;;;;;7.40;3.72;;;;;;;13.49;74.75;99861.28;4981194;28;20034;-92
2022/09/07 04:59:21;;;;;;;10.52;4.18;;;;;;;13.56;73.94;99852.84;4965420;28;20028;-91
2022/09/07 05:01:47;;;;;;;9.55;2.88;;;;;;;13.69;73.45;99863.06;4980956;28;20144;-91
2022/09/07 05:04:12;;;;;;;6.55;3.08;;;;;;;13.66;73.20;99848.19;4981231;28;20026;-91
2022/09/07 05:06:38;;;;;;;6.95;3.00;;;;;;;13.85;72.99;99861.13;4980873;28;20030;-92
2022/09/07 05:09:06;;;;;;;6.10;3.00;;;;;;;14.29;72.06;99882.78;4981610;28;20030;-92
2022/09/07 05:11:43;;;;;;;9.30;3.15;;;;;;;14.13;71.85;99863.13;4997367;28;20034;-92
2022/09/07 05:14:09;;;;;;;9.07;3.67;;;;;;;14.07;72.07;99858.00;4967670;28;20030;-91
2022/09/07 05:16:35;;;;;;;11.77;3.63;;;;;;;14.19;71.70;99880.16;5015173;28;20029;-93
2022/09/07 05:19:02;;;;;;;6.38;3.08;;;;;;;14.24;71.98;99882.03;4982568;28;20060;-94
2022/09/07 05:24:53;;;;;;;9.30;4.03;;;;;;;14.54;71.18;99870.16;4975995;28;20050;-94
2022/09/07 05:27:21;;;;;;;6.63;3.05;;;;;;;14.61;71.11;99856.31;4958604;28;20027;-95
2022/09/07 05:29:47;;;;;;;8.88;3.25;;;;;;;14.67;70.76;99853.31;4974131;28;20030;-93
2022/09/07 05:32:12;;;;;;;6.28;3.00;;;;;;;14.78;70.31;99864.06;4942743;28;20118;-93
2022/09/07 05:34:38;;;;;;;7.53;3.30;;;;;;;14.93;70.05;99862.00;4957232;28;20035;-94
2022/09/07 05:37:03;;;;;;;7.25;3.00;;;;;;;15.00;69.71;99852.75;4958152;28;20034;-93
2022/09/07 05:39:35;;;;;;;6.60;2.85;;;;;;;15.11;69.49;99848.84;4941601;28;20038;-93
2022/09/07 05:42:01;;;;;;;;;;;;;;;15.42;69.03;99887.31;4957460;28;20031;-92
2022/09/07 05:44:30;;;;;;;6.50;4.07;;;;;;;15.34;68.71;99853.47;4956656;28;20084;-90
2022/09/07 05:46:56;;;;;;;15.07;6.88;;;;;;;15.57;68.57;99870.84;4957079;28;20035;-91
2022/09/07 05:49:21;;;;;;;10.95;5.28;;;;;;;15.70;68.08;99874.75;4940029;28;20062;-90
2022/09/07 05:51:55;;;;;;;9.80;3.88;;;;;;;15.89;67.21;99891.13;4940023;28;20516;-92
2022/09/07 05:54:21;;;;;;;9.50;3.95;;;;;;;15.90;66.93;99865.59;4976799;28;20062;-93
2022/09/07 05:56:46;;;;;;;9.90;3.33;;;;;;;15.94;66.85;99853.06;4964269;28;20029;-92
2022/09/07 05:59:12;;;;;;;3.90;2.10;;;;;;;16.19;65.93;99878.25;4963808;28;20056;-90
2022/09/07 06:01:39;;;;;;;3.55;2.42;;;;;;;16.25;65.70;99860.78;4981056;28;20472;-90
2022/09/07 06:04:05;;;;;;;6.95;2.75;;;;;;;16.34;65.00;99855.47;4968735;28;20030;-92
2022/09/07 06:06:31;;;;;;;5.63;2.72;;;;;;;16.48;65.09;99853.63;4966597;28;20037;-93
2022/09/07 06:08:57;;;;;;;3.65;2.80;;;;;;;16.53;64.65;99837.22;4983264;28;20022;-94
2022/09/07 06:11:23;;;;;;;2.47;1.90;;;;;;;16.77;62.67;99852.63;5005722;28;20095;-94
2022/09/07 06:13:50;;;;;;;3.83;2.55;;;;;;;16.94;61.38;99846.66;4964531;28;20022;-93
2022/09/07 06:16:22;;;;;;;4.22;2.72;;;;;;;17.04;60.88;99843.75;4968370;28;20076;-93
2022/09/07 06:18:50;;;;;;;3.22;2.03;;;;;;;17.12;60.96;99851.22;5000070;28;20048;-95
2022/09/07 06:21:17;;;;;;;3.47;2.38;;;;;;;17.20;60.40;99846.19;5053624;28;20513;-93
2022/09/07 06:23:43;;;;;;;4.40;2.20;;;;;;;17.26;60.43;99839.53;5003301;28;20078;-92
2022/09/07 06:26:16;;;;;;;7.22;2.20;;;;;;;17.55;58.28;99842.75;5020598;28;20083;-94
2022/09/07 06:28:43;;;;;;;3.58;1.90;;;;;;;17.53;57.88;99836.81;4981649;28;20041;-94
2022/09/07 06:31:13;;;;;;;2.72;1.85;;;;;;;17.58;56.56;99835.91;4958853;28;20511;-91
2022/09/07 06:33:46;;;;;;;5.88;2.67;;;;;;;17.72;56.61;99850.34;4950516;28;20459;-93
2022/09/07 06:36:18;;;;;;;5.30;2.15;;;;;;;17.73;55.87;99818.44;4956237;28;20023;-93
2022/09/07 06:38:46;;;;;;;7.93;4.18;;;;;;;18.00;55.73;99828.50;4925391;28;20062;-92
2022/09/07 06:41:14;;;;;;;3.85;2.00;;;;;;;18.18;53.54;99834.94;4924237;28;20031;-91
2022/09/07 06:43:42;;;;;;;6.50;1.90;;;;;;;18.33;52.84;99841.94;4939791;28;20035;-91
2022/09/07 06:46:08;;;;;;;3.67;2.10;;;;;;;18.46;53.33;99832.88;4924331;28;20029;-90
2022/09/07 06:48:34;;;;;;;7.53;3.05;;;;;;;18.58;52.47;99833.13;4939905;28;20122;-91
2022/09/07 06:51:25;;;;;;;3.80;2.30;;;;;;;18.92;51.74;99848.13;4939816;28;20490;-94
2022/09/07 06:53:51;;;;;;;3.28;1.90;;;;;;;18.92;50.82;99839.16;4941709;28;20038;-93
2022/09/07 06:56:19;;;;;;;3.97;1.90;;;;;;;19.01;51.77;99839.19;4940645;28;20113;-92
2022/09/07 06:58:46;;;;;;;4.90;3.22;;;;;;;19.11;51.61;99836.19;4996196;28;20086;-95
2022/09/07 07:01:13;;;;;;;4.05;2.22;;;;;;;19.33;48.95;99835.31;5039964;28;20043;-92
2022/09/07 07:03:52;;;;;;;10.70;5.50;;;;;;;19.61;48.59;99837.81;5006556;28;20021;-92
2022/09/07 07:06:18;;;;;;;4.90;3.25;;;;;;;19.77;47.97;99836.28;5019868;28;20021;-90
2022/09/07 07:08:43;;;;;;;5.30;2.28;;;;;;;20.02;47.40;99853.84;4971477;28;20369;-93
2022/09/07 07:11:13;;;;;;;6.70;3.20;;;;;;;19.94;47.86;99819.09;4994799;28;20029;-92
2022/09/07 07:13:40;;;;;;;7.97;3.83;;;;;;;20.15;46.83;99824.75;4967415;28;20025;-92
2022/09/07 07:16:12;;;;;;;4.53;2.78;;;;;;;20.33;45.73;99823.63;4985787;28;20022;-93
2022/09/07 07:18:43;;;;;;;6.63;2.70;;;;;;;20.42;44.50;99820.06;4984437;28;20125;-91
2022/09/07 07:21:13;;;;;;;3.25;1.73;;;;;;;20.59;43.03;99826.38;4999995;28;20064;-91
2022/09/07 07:23:39;;;;;;;3.85;2.60;;;;;;;20.78;44.16;99838.88;5000390;28;20101;-91
2022/09/07 07:26:20;;;;;;;2.60;1.60;;;;;;;20.93;42.93;99829.34;4984104;28;20455;-89
2022/09/07 07:28:49;;;;;;;3.50;1.70;;;;;;;21.20;42.32;99837.13;4984685;28;20045;-90
2022/09/07 07:31:18;;;;;;;4.35;1.48;;;;;;;21.26;41.05;99824.06;5018122;28;20109;-90
2022/09/07 07:33:45;;;;;;;3.13;1.65;;;;;;;21.53;40.79;99833.00;5017369;28;20058;-88
2022/09/07 07:36:15;;;;;;;4.32;2.97;;;;;;;21.71;41.17;99840.00;4992250;28;20013;-89
2022/09/07 07:38:42;;;;;;;3.17;1.67;;;;;;;21.73;40.17;99820.50;5027526;28;20403;-91
2022/09/07 07:41:08;;;;;;;2.47;1.20;;;;;;;21.90;39.30;99825.03;4997369;28;20524;-89
2022/09/07 07:43:33;;;;;;;3.75;1.52;;;;;;;21.96;38.11;99807.25;5000601;28;20021;-90
2022/09/07 07:46:02;;;;;;;3.85;2.38;;;;;;;22.23;37.31;99830.63;5017707;28;20021;-91
2022/09/07 07:48:54;;;;;;;5.82;3.15;;;;;;;22.48;37.31;99844.47;5001733;28;20470;-92
2022/09/07 07:51:23;;;;;;;11.48;6.10;;;;;;;22.53;36.79;99836.00;5036151;28;20024;-94
2022/09/07 07:53:51;;;;;;;5.95;2.95;;;;;;;22.62;36.78;99834.00;5002625;28;20025;-92
2022/09/07 07:56:24;;;;;;;3.60;2.30;;;;;;;22.61;35.45;99815.91;5010446;28;20626;-91
2022/09/07 07:58:51;;;;;;;4.57;2.55;;;;;;;22.84;35.85;99823.75;4986570;28;20021;-91
2022/09/07 08:01:16;;;;;;;4.78;1.90;;;;;;;22.94;34.89;99806.84;5019368;28;20092;-93
2022/09/07 08:03:43;;;;;;;5.15;1.90;;;;;;;23.14;33.87;99833.47;5001897;28;20029;-92
2022/09/07 08:06:10;;;;;;;4.22;2.63;;;;;;;23.27;34.79;99825.22;4986237;28;20399;-93
2022/09/07 08:08:36;;;;;;;5.03;2.05;;;;;;;23.42;34.25;99834.72;4984474;28;20503;-92
2022/09/07 08:11:11;;;;;;;3.60;1.60;;;;;;;23.40;35.71;99805.63;4983308;28;20067;-92
2022/09/07 08:13:39;;;;;;;3.22;1.77;;;;;;;23.53;33.36;99805.63;5003416;28;20521;-92
2022/09/07 08:16:07;;;;;;;1.88;1.50;;;;;;;23.61;34.14;99807.44;5001609;28;20039;-93
2022/09/07 08:18:33;;;;;;;14.55;9.40;;;;;;;23.73;33.82;99801.13;4985464;28;20124;-90
2022/09/07 08:21:02;;;;;;;5.00;3.40;;;;;;;23.80;32.66;99791.19;5034620;28;20025;-91
2022/09/07 08:23:30;;;;;;;4.88;3.35;;;;;;;24.03;33.04;99812.69;5000588;28;20025;-92
2022/09/07 08:26:01;;;;;;;3.50;1.65;;;;;;;24.12;33.00;99807.84;4983155;28;20021;-89
2022/09/07 08:28:27;;;;;;;5.05;1.88;;;;;;;24.10;32.00;99790.09;4968381;28;20526;-89
2022/09/07 08:30:53;;;;;;;3.55;1.73;;;;;;;24.21;31.79;99794.72;4994933;28;20033;-89
2022/09/07 08:33:21;;;;;;;4.28;2.00;;;;;;;24.27;32.00;99803.53;4999120;28;20025;-89
2022/09/07 08:36:09;;;;;;;3.58;1.77;;;;;;;24.20;31.68;99790.38;5021789;28;20151;-92
2022/09/07 08:38:35;;;;;;;3.38;1.95;;;;;;;24.36;32.68;99800.63;4986513;28;20025;-91
2022/09/07 08:41:01;;;;;;;4.05;1.80;;;;;;;24.49;31.83;99818.75;4964600;28;20511;-93
2022/09/07 08:43:59;;;;;;;3.42;2.42;;;;;;;24.56;32.34;99816.16;4995574;28;20053;-92
2022/09/07 08:46:34;;;;;;;4.03;2.00;;;;;;;24.69;30.94;99811.38;5014396;28;20033;-90
2022/09/07 08:49:06;;;;;;;8.07;3.53;;;;;;;24.63;31.07;99785.25;5006475;28;20025;-92
2022/09/07 08:51:42;;;;;;;;;;;;;;;24.83;32.12;99794.44;4981392;28;20036;-93
2022/09/07 08:54:09;;;;;;;1.70;1.20;;;;;;;24.86;31.19;99798.44;4997767;28;20020;-94
2022/09/07 08:56:37;;;;;;;4.55;1.83;;;;;;;24.79;30.91;99777.81;4980803;28;20033;-93
2022/09/07 08:59:20;;;;;;;2.75;1.92;;;;;;;24.86;31.16;99785.50;4965095;28;20121;-92
2022/09/07 09:01:54;;;;;;;6.10;2.30;;;;;;;24.81;29.72;99775.50;4969868;28;20056;-92
2022/09/07 09:04:28;;;;;;;1.92;1.23;;;;;;;24.91;29.68;99781.66;5010638;28;20025;-92
2022/09/07 09:07:18;;;;;;;3.03;1.75;;;;;;;25.13;29.75;99800.34;5010701;28;20069;-95
2022/09/07 09:09:59;;;;;;;2.47;1.58;;;;;;;25.02;29.49;99786.25;5033532;28;20020;-92
2022/09/07 09:12:39;;;;;;;3.22;1.45;;;;;;;25.10;29.32;99784.50;5003180;28;20026;-94
2022/09/07 09:15:50;;;;;;;2.95;1.67;;;;;;;25.19;30.21;99768.59;4968597;28;20062;-96
2022/09/07 09:18:30;;;;;;;3.47;1.48;;;;;;;25.23;29.74;99759.63;4978873;28;20056;-94
2022/09/07 09:21:33;;;;;;;2.75;1.80;;;;;;;25.37;28.59;99776.50;4984818;28;20034;-95
2022/09/07 09:24:14;;;;;;;3.70;2.25;;;;;;;25.19;28.87;99763.09;4980612;28;20026;-96
2022/09/07 09:27:04;;;;;;;4.07;2.08;;;;;;;25.38;30.38;99764.31;4965463;28;20112;-96
2022/09/07 09:29:40;;;;;;;4.47;2.42;;;;;;;25.35;29.50;99748.50;4968168;28;20030;-96
2022/09/07 09:36:18;;;;;;;3.75;1.40;;;;;;;25.67;28.61;99778.72;4932153;29;20495;-95
2022/09/07 09:38:47;;;;;;;2.28;1.33;;;;;;;25.54;28.66;99750.50;4922503;29;20127;-94
2022/09/07 09:41:16;;;;;;;4.03;1.70;;;;;;;25.45;28.60;99753.44;4891551;29;20036;-94
2022/09/07 09:43:51;;;;;;;3.05;1.65;;;;;;;25.63;28.20;99753.84;4942732;28;20042;-91
2022/09/07 09:46:18;;;;;;;2.53;1.58;;;;;;;25.68;28.76;99750.81;4979900;28;20109;-93
2022/09/07 09:48:58;;;;;;;5.30;3.50;;;;;;;25.69;27.18;99737.81;4978342;28;20045;-96
2022/09/07 09:51:41;;;;;;;7.28;2.92;;;;;;;25.81;27.47;99763.28;4977398;28;20110;-94
2022/09/07 09:54:35;;;;;;;1.95;1.38;;;;;;;25.75;27.79;99736.34;4979137;28;20046;-93
2022/09/07 09:57:02;;;;;;;3.88;2.00;;;;;;;25.74;28.25;99737.53;4980197;28;20038;-94
2022/09/07 09:59:59;;;;;;;3.60;1.52;;;;;;;25.94;28.23;99757.66;4964353;28;20038;-96
2022/09/07 10:02:29;;;;;;;1.95;1.50;;;;;;;25.81;27.52;99734.91;4994471;28;20033;-93
2022/09/07 10:05:02;;;;;;;1.75;1.30;;;;;;;25.69;26.80;99726.78;4992901;28;20384;-94
2022/09/07 10:07:28;;;;;;;2.70;1.40;;;;;;;25.64;27.16;99725.09;4979137;28;20073;-91
2022/09/07 10:09:57;;;;;;;4.95;2.30;;;;;;;25.87;28.30;99738.97;4977188;28;20026;-91
2022/09/07 10:12:30;;;;;;;3.63;1.80;;;;;;;25.92;28.91;99737.91;4976329;28;20472;-90
2022/09/07 10:14:56;;;;;;;7.22;3.33;;;;;;;25.97;28.28;99732.13;4976133;28;20030;-90
2022/09/07 10:17:29;;;;;;;2.55;1.63;;;;;;;25.96;27.86;99723.06;4975843;28;20022;-90
2022/09/07 10:19:58;;;;;;;2.00;1.50;;;;;;;25.96;27.83;99716.72;4976479;28;20508;-90
2022/09/07 10:23:01;;;;;;;1.70;1.10;;;;;;;26.09;26.61;99717.38;4975705;28;20030;-92
2022/09/07 10:25:38;;;;;;;5.15;2.10;;;;;;;26.02;27.68;99709.75;4965468;28;20038;-92
2022/09/07 10:28:08;;;;;;;2.05;1.35;;;;;;;26.17;27.24;99739.22;4962039;28;20035;-91
2022/09/07 10:30:55;;;;;;;4.95;1.83;;;;;;;26.10;25.67;99739.06;4994598;28;20027;-91
2022/09/07 10:33:26;;;;;;;2.08;1.38;;;;;;;26.05;26.32;99727.56;5012519;28;20034;-91
2022/09/07 10:36:11;;;;;;;2.85;1.50;;;;;;;25.93;26.42;99712.72;5012825;28;20038;-87
2022/09/07 10:38:59;;;;;;;2.00;1.27;;;;;;;26.00;25.93;99706.53;4979779;28;20493;-90
2022/09/07 10:41:50;;;;;;;2.15;1.67;;;;;;;26.02;27.18;99701.47;4997047;28;20044;-90
2022/09/07 10:44:38;;;;;;;2.55;1.42;;;;;;;26.14;26.79;99698.53;4997484;28;20427;-89
2022/09/07 10:47:19;;;;;;;2.28;1.58;;;;;;;26.24;27.51;99719.25;4971290;28;20041;-88
2022/09/07 10:50:17;;;;;;;;;;;;;;;;;;;;;
2022/09/07 10:53:02;;;;;;;3.13;1.23;;;;;;;26.15;26.89;99718.69;5002526;28;20029;-89
2022/09/07 10:56:35;;;;;;;2.25;1.45;;;;;;;26.21;26.95;99711.69;4991159;28;20165;-90
2022/09/07 10:59:25;;;;;;;1.63;1.20;;;;;;;26.22;27.15;99705.00;4955872;28;20102;-92
2022/09/07 11:02:18;;;;;;;2.08;1.20;;;;;;;26.13;27.92;99685.13;4986374;28;20136;-91
2022/09/07 11:04:50;;;;;;;4.13;1.27;;;;;;;26.20;27.45;99685.25;4978227;28;20069;-91
2022/09/07 11:07:37;;;;;;;;;;;;;;;26.29;27.05;99699.59;4992764;28;20048;-90
2022/09/07 11:10:20;;;;;;;5.25;1.98;;;;;;;26.32;27.17;99703.63;4995204;28;19910;-92
2022/09/07 11:13:44;;;;;;;1.90;1.30;;;;;;;26.21;26.39;99695.94;4978828;28;20030;-92
2022/09/07 11:16:37;;;;;;;2.00;1.17;;;;;;;26.03;26.63;99683.75;4947449;29;20027;-93
2022/09/07 11:19:11;;;;;;;1.98;1.25;;;;;;;26.20;27.00;99693.53;4991266;28;20055;-94
2022/09/07 11:21:39;;;;;;;2.00;1.00;;;;;;;26.23;27.39;99670.72;4982661;28;20594;-92
2022/09/07 11:24:10;;;;;;;2.50;1.55;;;;;;;26.18;27.82;99652.47;4999540;28;20018;-92
2022/09/07 11:26:40;;;;;;;2.92;1.73;;;;;;;26.34;26.91;99657.91;4999138;28;20022;-92
2022/09/07 11:29:17;;;;;;;4.10;1.50;;;;;;;26.50;26.35;99659.72;4984188;28;20056;-93
2022/09/07 11:31:44;;;;;;;3.08;1.50;;;;;;;26.61;26.50;99663.50;5000607;28;20025;-93
2022/09/07 11:34:29;;;;;;;2.95;1.58;;;;;;;26.63;26.57;99657.63;4999395;28;20033;-92
2022/09/07 11:36:58;;;;;;;2.47;1.98;;;;;;;26.68;26.71;99652.56;4999176;28;20476;-94
2022/09/07 11:39:35;;;;;;;1.88;1.25;;;;;;;26.67;26.63;99653.75;5015847;28;20076;-91
2022/09/07 11:42:02;;;;;;;2.25;1.48;;;;;;;26.68;26.41;99633.22;4999528;28;20112;-92
2022/09/07 11:45:19;;;;;;;2.70;1.55;;;;;;;26.72;26.23;99627.75;5000388;28;20044;-92
2022/09/07 11:47:48;;;;;;;3.28;1.80;;;;;;;26.74;27.26;99633.72;4985634;28;20095;-91
2022/09/07 11:50:17;;;;;;;4.72;2.13;;;;;;;26.89;27.42;99652.09;5003500;28;20042;-94
2022/09/07 11:52:55;;;;;;;5.38;2.42;;;;;;;26.78;26.92;99629.81;5003711;28;20475;-94
2022/09/07 11:55:26;;;;;;;3.35;1.90;;;;;;;26.88;26.94;99622.09;4989204;28;20187;-95
2022/09/07 12:01:45;;;;;;;2.30;1.35;;;;;;;27.10;26.18;99631.47;4941454;29;20039;-95
2022/09/07 12:04:33;;;;;;;2.72;1.58;;;;;;;27.12;26.00;99624.41;4953247;28;20055;-95
2022/09/07 12:07:14;;;;;;;2.90;1.25;;;;;;;27.11;26.36;99620.03;5007518;28;20073;-93
2022/09/07 12:09:43;;;;;;;1.95;1.40;;;;;;;27.13;26.75;99617.69;5019258;28;20092;-92
2022/09/07 12:12:22;;;;;;;4.90;2.30;;;;;;;27.19;26.53;99627.25;5035284;28;20029;-94